TimeEST,TemperatureF,Dew PointF,Humidity,Sea Level PressureIn,VisibilityMPH,Wind Direction,Wind SpeedMPH,Gust SpeedMPH,PrecipitationIn,Events,Conditions,WindDirDegrees,DateUTC
12:15 AM,12.2,3.2,67,29.72,10.0,WSW,5.8,-,N/A,,Clear,250,2014-02-27 05:15:00
12:35 AM,12.2,3.2,67,29.72,10.0,WSW,5.8,-,N/A,,Clear,250,2014-02-27 05:35:00
12:55 AM,12.2,3.2,67,29.71,10.0,WSW,4.6,-,N/A,,Clear,240,2014-02-27 05:55:00
1:15 AM,12.2,1.4,62,29.70,10.0,SW,6.9,-,N/A,,Scattered Clouds,230,2014-02-27 06:15:00
1:40 AM,14.0,1.4,57,29.69,10.0,SW,8.1,-,N/A,,Overcast,220,2014-02-27 06:40:00
1:55 AM,14.0,3.2,62,29.68,10.0,SW,8.1,-,N/A,,Overcast,220,2014-02-27 06:55:00
2:15 AM,14.0,1.4,57,29.67,10.0,SW,8.1,16.1,N/A,,Overcast,230,2014-02-27 07:15:00
2:35 AM,14.0,1.4,57,29.66,10.0,SW,8.1,-,N/A,,Mostly Cloudy,230,2014-02-27 07:35:00
2:55 AM,14.0,1.4,57,29.64,10.0,SW,10.4,-,N/A,,Overcast,230,2014-02-27 07:55:00
3:15 AM,14.0,1.4,57,29.63,10.0,WSW,11.5,-,N/A,,Overcast,240,2014-02-27 08:15:00
3:35 AM,15.8,1.4,53,29.62,10.0,WSW,13.8,19.6,N/A,,Overcast,240,2014-02-27 08:35:00
3:55 AM,15.8,1.4,53,29.61,10.0,WSW,13.8,20.7,N/A,,Mostly Cloudy,250,2014-02-27 08:55:00
4:15 AM,15.8,1.4,53,29.60,10.0,WSW,17.3,24.2,N/A,,Mostly Cloudy,250,2014-02-27 09:15:00
4:35 AM,15.8,1.4,53,29.60,10.0,WSW,15.0,24.2,N/A,,Mostly Cloudy,250,2014-02-27 09:35:00
4:55 AM,15.8,1.4,53,29.60,10.0,WSW,18.4,24.2,N/A,,Mostly Cloudy,250,2014-02-27 09:55:00
5:15 AM,14.0,-0.4,53,29.60,10.0,West,12.7,18.4,N/A,,Mostly Cloudy,260,2014-02-27 10:15:00
5:35 AM,14.0,1.4,57,29.60,10.0,WSW,16.1,24.2,N/A,,Scattered Clouds,250,2014-02-27 10:35:00
5:55 AM,14.0,1.4,57,29.60,10.0,West,15.0,18.4,N/A,,Scattered Clouds,260,2014-02-27 10:55:00
6:15 AM,14.0,-0.4,53,29.59,10.0,WSW,15.0,21.9,N/A,,Scattered Clouds,250,2014-02-27 11:15:00
6:35 AM,14.0,1.4,57,29.58,10.0,WSW,16.1,23.0,N/A,,Overcast,250,2014-02-27 11:35:00
6:55 AM,14.0,1.4,57,29.58,10.0,WSW,17.3,26.5,N/A,,Overcast,250,2014-02-27 11:55:00
7:15 AM,14.0,1.4,57,29.58,10.0,WSW,16.1,23.0,N/A,,Overcast,240,2014-02-27 12:15:00
7:35 AM,15.8,1.4,53,29.58,10.0,WSW,17.3,24.2,N/A,,Overcast,250,2014-02-27 12:35:00
7:55 AM,15.8,5.0,62,29.58,4.0,WSW,16.1,23.0,N/A,,Overcast,250,2014-02-27 12:55:00
8:15 AM,15.8,6.8,68,29.59,2.5,WSW,18.4,-,N/A,,Overcast,250,2014-02-27 13:15:00
8:35 AM,15.8,6.8,68,29.60,2.0,West,13.8,21.9,N/A,,Overcast,260,2014-02-27 13:35:00
9:00 AM,15.8,8.6,73,29.60,1.8,West,15.0,25.3,N/A,,Overcast,260,2014-02-27 14:00:00
9:15 AM,15.8,8.6,73,29.60,3.0,WSW,12.7,-,N/A,,Overcast,250,2014-02-27 14:15:00
9:35 AM,17.6,6.8,63,29.60,10.0,West,17.3,27.6,N/A,,Mostly Cloudy,260,2014-02-27 14:35:00
9:55 AM,17.6,1.4,49,29.60,10.0,West,21.9,32.2,N/A,,Mostly Cloudy,270,2014-02-27 14:55:00
10:15 AM,17.6,3.2,53,29.60,7.0,West,21.9,33.4,N/A,,Mostly Cloudy,270,2014-02-27 15:15:00
10:35 AM,17.6,5.0,58,29.61,7.0,West,20.7,34.5,N/A,,Mostly Cloudy,270,2014-02-27 15:35:00
10:55 AM,19.4,3.2,49,29.61,10.0,West,21.9,31.1,N/A,,Scattered Clouds,260,2014-02-27 15:55:00
11:15 AM,19.4,1.4,46,29.61,10.0,West,23.0,34.5,N/A,,Mostly Cloudy,270,2014-02-27 16:15:00
11:35 AM,19.4,3.2,49,29.63,4.0,West,25.3,40.3,N/A,,Mostly Cloudy,270,2014-02-27 16:35:00
11:55 AM,19.4,10.4,68,29.64,3.0,West,10.4,33.4,N/A,,Mostly Cloudy,280,2014-02-27 16:55:00
12:15 PM,17.6,8.6,68,29.64,10.0,WNW,15.0,26.5,N/A,,Overcast,290,2014-02-27 17:15:00
12:35 PM,17.6,10.4,73,29.66,0.2,West,24.2,34.5,N/A,,Overcast,280,2014-02-27 17:35:00
12:55 PM,17.6,10.4,73,29.66,-9999.0,WNW,17.3,28.8,N/A,,Overcast,290,2014-02-27 17:55:00
1:15 PM,15.8,10.4,79,29.68,-9999.0,WNW,19.6,31.1,N/A,,Overcast,300,2014-02-27 18:15:00
1:35 PM,15.8,6.8,68,29.70,-9999.0,WNW,26.5,39.1,N/A,,Overcast,300,2014-02-27 18:35:00
1:55 PM,15.8,8.6,73,29.71,-9999.0,WNW,19.6,29.9,N/A,,Overcast,300,2014-02-27 18:55:00
2:15 PM,17.6,8.6,68,29.72,-9999.0,WNW,12.7,26.5,N/A,,Mostly Cloudy,290,2014-02-27 19:15:00
2:35 PM,15.8,6.8,68,29.75,-9999.0,NW,19.6,34.5,N/A,,Mostly Cloudy,310,2014-02-27 19:35:00
2:55 PM,15.8,6.8,68,29.77,-9999.0,WNW,13.8,23.0,N/A,,Overcast,300,2014-02-27 19:55:00
3:15 PM,15.8,3.2,58,29.79,-9999.0,WNW,19.6,35.7,N/A,,Overcast,300,2014-02-27 20:15:00
3:35 PM,15.8,1.4,53,29.81,-9999.0,NW,13.8,27.6,N/A,,Mostly Cloudy,310,2014-02-27 20:35:00
3:55 PM,12.2,3.2,67,29.84,-9999.0,NNW,21.9,28.8,N/A,,Overcast,330,2014-02-27 20:55:00
4:15 PM,10.4,3.2,73,29.86,-9999.0,NW,18.4,25.3,N/A,,Overcast,320,2014-02-27 21:15:00
4:35 PM,10.4,-0.4,62,29.89,-9999.0,NNW,19.6,26.5,N/A,,Overcast,340,2014-02-27 21:35:00
4:55 PM,10.4,-2.2,57,29.90,-9999.0,NW,13.8,18.4,N/A,,Overcast,320,2014-02-27 21:55:00
5:15 PM,10.4,-5.8,48,29.91,-9999.0,NW,11.5,19.6,N/A,,Overcast,320,2014-02-27 22:15:00
5:35 PM,8.6,-2.2,62,29.93,-9999.0,NW,12.7,26.5,N/A,,Overcast,310,2014-02-27 22:35:00
5:55 PM,8.6,-2.2,62,29.95,10.0,NW,10.4,-,N/A,,Overcast,310,2014-02-27 22:55:00
6:15 PM,8.6,-5.8,52,29.96,10.0,NW,12.7,21.9,N/A,,Scattered Clouds,310,2014-02-27 23:15:00
6:35 PM,8.6,-7.6,48,29.98,10.0,NW,11.5,26.5,N/A,,Mostly Cloudy,310,2014-02-27 23:35:00
6:55 PM,6.8,-7.6,52,29.99,10.0,WNW,16.1,19.6,N/A,,Mostly Cloudy,300,2014-02-27 23:55:00
7:15 PM,6.8,-7.6,52,30.00,10.0,NW,11.5,16.1,N/A,,Clear,320,2014-02-28 00:15:00
7:35 PM,6.8,-4.0,61,30.01,10.0,NW,11.5,23.0,N/A,,Clear,310,2014-02-28 00:35:00
7:55 PM,6.8,-4.0,61,30.02,10.0,NW,9.2,16.1,N/A,,Clear,310,2014-02-28 00:55:00
8:15 PM,6.8,-4.0,61,30.03,10.0,NW,8.1,-,N/A,,Clear,320,2014-02-28 01:15:00
8:35 PM,5.0,-5.8,61,30.03,10.0,NNW,10.4,16.1,N/A,,Clear,330,2014-02-28 01:35:00
8:55 PM,5.0,-5.8,61,30.04,10.0,NNW,5.8,-,N/A,,Clear,330,2014-02-28 01:55:00
9:15 PM,5.0,-7.6,56,30.04,10.0,NW,5.8,-,N/A,,Clear,310,2014-02-28 02:15:00
9:35 PM,3.2,-7.6,61,30.06,10.0,NW,8.1,-,N/A,,Clear,320,2014-02-28 02:35:00
9:55 PM,3.2,-7.6,61,30.07,10.0,NW,3.5,-,N/A,,Clear,310,2014-02-28 02:55:00
10:15 PM,3.2,-7.6,61,30.08,10.0,NW,4.6,-,N/A,,Clear,320,2014-02-28 03:15:00
10:35 PM,3.2,-7.6,61,30.08,10.0,NW,3.5,-,N/A,,Clear,320,2014-02-28 03:35:00
10:55 PM,3.2,-7.6,61,30.09,10.0,Calm,Calm,-,N/A,,Clear,0,2014-02-28 03:55:00
11:15 PM,1.4,-7.6,66,30.09,10.0,Calm,Calm,-,N/A,,Clear,0,2014-02-28 04:15:00
11:35 PM,1.4,-7.6,66,30.09,10.0,Calm,Calm,-,N/A,,Clear,0,2014-02-28 04:35:00
11:55 PM,1.4,-7.6,66,30.10,10.0,Calm,Calm,-,N/A,,Clear,0,2014-02-28 04:55:00